Time;durP1;ratioP1;P1;durP2;ratioP2;P2;SDS_P1;SDS_P2;PMS_P1;PMS_P2;Temp;Humidity;BMP_temperature;BMP_pressure;BME280_temperature;BME280_humidity;BME280_pressure;Samples;Min_cycle;Max_cycle;Signal;HPM_P1;HPM_P2
2021/03/17 00:01:00;;;;;;;0.22;0.22;;;21.40;29.30;;;;;;5027207;28;20072;-63
2021/03/17 00:03:27;;;;;;;0.47;0.47;;;21.40;29.40;;;;;;5027094;28;20092;-63
2021/03/17 00:05:54;;;;;;;0.65;0.40;;;21.40;29.40;;;;;;5027728;28;20478;-63
2021/03/17 00:08:22;;;;;;;0.30;0.30;;;21.40;29.40;;;;;;5027619;28;20061;-63
2021/03/17 00:10:51;;;;;;;0.50;0.47;;;21.40;29.40;;;;;;5028051;28;20071;-65
2021/03/17 00:13:20;;;;;;;0.50;0.50;;;21.40;29.40;;;;;;5027673;28;20104;-63
2021/03/17 00:15:46;;;;;;;0.68;0.50;;;21.30;29.40;;;;;;5027069;28;20046;-63
2021/03/17 00:18:14;;;;;;;0.40;0.40;;;21.30;29.40;;;;;;5027081;28;20041;-64
2021/03/17 00:20:42;;;;;;;0.45;0.30;;;21.30;29.40;;;;;;5017143;28;20045;-64
2021/03/17 00:23:09;;;;;;;0.40;0.40;;;21.30;29.40;;;;;;5027973;28;20132;-63
2021/03/17 00:25:37;;;;;;;0.50;0.40;;;21.30;29.40;;;;;;5020959;28;20727;-64
2021/03/17 00:28:08;;;;;;;0.38;0.38;;;21.30;29.40;;;;;;5010802;28;20220;-66
2021/03/17 00:30:37;;;;;;;0.30;0.30;;;21.30;29.40;;;;;;5022261;28;20053;-63
2021/03/17 00:33:07;;;;;;;0.50;0.50;;;21.40;29.40;;;;;;5021729;28;20825;-63
2021/03/17 00:35:34;;;;;;;0.40;0.20;;;21.40;29.50;;;;;;5023654;28;20061;-63
2021/03/17 00:38:01;;;;;;;1.08;0.38;;;21.40;29.40;;;;;;5012899;28;20120;-63
2021/03/17 00:40:28;;;;;;;0.45;0.45;;;21.30;29.40;;;;;;5010331;28;20124;-64
2021/03/17 00:42:55;;;;;;;0.30;0.30;;;21.40;29.40;;;;;;5020248;28;20046;-64
2021/03/17 00:45:21;;;;;;;1.00;0.50;;;21.40;29.40;;;;;;5023060;28;20142;-63
2021/03/17 00:47:48;;;;;;;0.40;0.40;;;21.40;29.50;;;;;;5026813;28;20338;-63
2021/03/17 00:50:16;;;;;;;1.08;0.32;;;21.30;29.40;;;;;;5026039;28;20054;-63
2021/03/17 00:52:44;;;;;;;0.40;0.40;;;21.30;29.40;;;;;;5027511;28;20123;-63
2021/03/17 00:55:12;;;;;;;0.47;0.20;;;21.30;29.40;;;;;;5025815;28;20056;-63
2021/03/17 00:57:40;;;;;;;0.32;0.32;;;21.30;29.40;;;;;;5016447;28;20380;-64
2021/03/17 01:00:09;;;;;;;0.30;0.30;;;21.30;29.90;;;;;;5027062;28;20139;-64
2021/03/17 01:02:36;;;;;;;0.20;0.20;;;21.30;29.50;;;;;;5016073;28;20047;-63
2021/03/17 01:05:03;;;;;;;0.40;0.40;;;21.30;29.50;;;;;;5006063;28;20581;-63
2021/03/17 01:07:30;;;;;;;0.20;0.20;;;21.30;29.50;;;;;;5005801;28;20129;-63
2021/03/17 01:09:57;;;;;;;0.30;0.20;;;21.30;29.50;;;;;;5007042;28;20275;-64
2021/03/17 01:12:23;;;;;;;0.28;0.28;;;21.30;29.50;;;;;;5006867;28;20192;-64
2021/03/17 01:14:50;;;;;;;0.75;0.47;;;21.30;29.50;;;;;;5006422;28;20045;-62
2021/03/17 01:17:17;;;;;;;0.52;0.30;;;21.30;29.50;;;;;;5005394;28;20371;-63
2021/03/17 01:19:45;;;;;;;0.25;0.22;;;21.30;29.50;;;;;;5004761;28;20042;-63
2021/03/17 01:22:11;;;;;;;0.30;0.30;;;21.30;29.50;;;;;;5010737;28;20053;-64
2021/03/17 01:24:38;;;;;;;0.80;0.40;;;21.30;29.60;;;;;;5019763;28;20119;-63
2021/03/17 01:27:05;;;;;;;0.40;0.30;;;21.30;29.60;;;;;;5026668;28;20119;-63
2021/03/17 01:29:31;;;;;;;0.30;0.30;;;21.30;29.60;;;;;;5027269;28;20134;-64
2021/03/17 01:31:58;;;;;;;0.30;0.30;;;21.30;29.50;;;;;;5027217;28;20049;-63
2021/03/17 01:34:25;;;;;;;0.40;0.40;;;21.30;29.60;;;;;;5010189;28;20080;-63
2021/03/17 01:36:52;;;;;;;0.75;0.40;;;21.30;29.50;;;;;;5005127;28;20050;-63
2021/03/17 01:39:18;;;;;;;0.30;0.30;;;21.30;29.50;;;;;;5005438;28;20582;-63
2021/03/17 01:41:46;;;;;;;1.38;0.32;;;21.30;29.50;;;;;;5011881;28;20042;-64
2021/03/17 01:44:13;;;;;;;0.90;0.30;;;21.30;29.50;;;;;;5014729;28;20632;-63
2021/03/17 01:46:40;;;;;;;0.95;0.30;;;21.30;29.50;;;;;;5020822;28;20543;-63
2021/03/17 01:49:08;;;;;;;0.40;0.30;;;21.30;29.50;;;;;;5005957;28;20050;-63
2021/03/17 01:51:34;;;;;;;0.30;0.30;;;21.30;29.50;;;;;;5010275;28;20259;-63
2021/03/17 01:54:02;;;;;;;0.22;0.22;;;21.30;30.00;;;;;;5010796;28;20100;-63
2021/03/17 01:56:30;;;;;;;0.40;0.40;;;21.30;29.60;;;;;;5009936;28;20442;-63
2021/03/17 01:58:57;;;;;;;0.38;0.38;;;21.30;29.60;;;;;;5010433;28;20129;-63
2021/03/17 02:01:23;;;;;;;0.25;0.20;;;21.20;29.60;;;;;;5007263;28;20146;-63
2021/03/17 02:03:50;;;;;;;0.30;0.22;;;21.30;29.60;;;;;;5025060;28;20057;-63
2021/03/17 02:06:17;;;;;;;0.47;0.47;;;21.20;29.60;;;;;;5029732;28;20088;-63
2021/03/17 02:08:45;;;;;;;0.28;0.28;;;21.20;29.60;;;;;;5029039;28;20619;-65
2021/03/17 02:11:13;;;;;;;0.17;0.17;;;21.20;29.60;;;;;;5029607;28;20077;-62
2021/03/17 02:14:06;;;;;;;0.20;0.13;;;21.30;29.70;;;;;;5029493;28;20077;-63
2021/03/17 02:16:50;;;;;;;0.50;0.38;;;21.20;29.60;;;;;;5015323;28;20077;-64
2021/03/17 02:19:57;;;;;;;0.43;0.30;;;21.30;29.70;;;;;;5009580;28;20517;-63
2021/03/17 02:22:46;;;;;;;0.20;0.20;;;21.30;29.70;;;;;;5005280;28;20518;-63
2021/03/17 02:25:46;;;;;;;0.20;0.20;;;21.20;29.70;;;;;;5009423;28;20078;-63
2021/03/17 02:28:34;;;;;;;;;;;21.20;29.90;;;;;;4995440;28;20050;-64
2021/03/17 02:31:38;;;;;;;0.55;0.40;;;21.20;29.70;;;;;;5013427;28;20037;-63
2021/03/17 02:34:12;;;;;;;1.05;0.28;;;21.20;29.70;;;;;;5029055;28;20062;-66
2021/03/17 02:36:53;;;;;;;0.30;0.30;;;21.20;29.70;;;;;;5029378;28;20053;-63
2021/03/17 02:39:30;;;;;;;0.35;0.35;;;21.30;29.80;;;;;;5028934;28;20103;-63
2021/03/17 02:42:21;;;;;;;0.20;0.20;;;21.30;29.80;;;;;;5028857;28;20573;-63
2021/03/17 02:45:14;;;;;;;0.75;0.30;;;21.20;29.80;;;;;;5027992;28;20103;-63
2021/03/17 02:48:05;;;;;;;0.25;0.25;;;21.20;29.80;;;;;;5028778;28;20095;-64
2021/03/17 02:50:36;;;;;;;0.20;0.20;;;21.20;29.80;;;;;;5028680;28;20050;-63
2021/03/17 02:53:04;;;;;;;0.10;0.10;;;21.20;29.80;;;;;;5028947;28;20050;-63
2021/03/17 02:55:38;;;;;;;0.20;0.20;;;21.10;29.80;;;;;;5028805;28;20115;-64
2021/03/17 02:58:06;;;;;;;0.20;0.20;;;21.20;29.80;;;;;;5017120;28;20128;-63
2021/03/17 03:00:33;;;;;;;0.20;0.20;;;21.20;29.80;;;;;;5006525;28;20517;-63
2021/03/17 03:03:02;;;;;;;0.13;0.13;;;21.20;29.80;;;;;;5022639;28;20096;-63
2021/03/17 03:05:30;;;;;;;0.28;0.28;;;21.20;29.90;;;;;;5028638;28;20107;-64
2021/03/17 03:07:59;;;;;;;0.32;0.20;;;21.20;29.90;;;;;;5028628;28;20049;-64
2021/03/17 03:10:30;;;;;;;0.30;0.30;;;21.20;29.90;;;;;;5028864;28;20453;-66
2021/03/17 03:12:58;;;;;;;0.20;0.20;;;21.20;29.90;;;;;;5028566;28;20129;-63
2021/03/17 03:15:28;;;;;;;0.22;0.17;;;21.20;29.90;;;;;;5018520;28;20597;-63
2021/03/17 03:17:57;;;;;;;0.43;0.38;;;21.20;29.90;;;;;;5006566;28;20092;-63
2021/03/17 03:20:26;;;;;;;0.20;0.20;;;21.20;29.90;;;;;;5017267;28;20049;-64
2021/03/17 03:22:55;;;;;;;0.30;0.30;;;21.20;29.90;;;;;;5004849;28;20545;-63
2021/03/17 03:25:22;;;;;;;0.10;0.10;;;21.10;29.80;;;;;;5005868;28;20137;-63
2021/03/17 03:27:51;;;;;;;0.40;0.20;;;21.20;29.90;;;;;;5007971;28;20049;-63
2021/03/17 03:30:24;;;;;;;0.22;0.22;;;21.10;29.80;;;;;;5008460;28;20310;-63
2021/03/17 03:32:52;;;;;;;0.20;0.20;;;21.20;29.90;;;;;;5007913;28;20120;-64
2021/03/17 03:35:20;;;;;;;0.10;0.10;;;21.20;29.90;;;;;;5006616;28;20060;-64
2021/03/17 03:37:48;;;;;;;0.22;0.22;;;21.20;29.90;;;;;;5007867;28;20104;-63
2021/03/17 03:40:18;;;;;;;0.30;0.30;;;21.20;29.90;;;;;;5006320;28;20370;-64
2021/03/17 03:42:47;;;;;;;0.10;0.10;;;21.20;29.90;;;;;;5007358;28;20080;-63
2021/03/17 03:45:17;;;;;;;0.47;0.30;;;21.20;29.90;;;;;;5007801;28;20053;-63
2021/03/17 03:47:46;;;;;;;0.20;0.20;;;21.20;29.90;;;;;;5015906;28;20276;-64
2021/03/17 03:50:17;;;;;;;0.20;0.20;;;21.20;29.90;;;;;;5008917;28;20053;-64
2021/03/17 03:53:10;;;;;;;0.30;0.25;;;21.20;29.90;;;;;;5007457;28;20091;-63
2021/03/17 03:55:55;;;;;;;0.20;0.20;;;21.10;29.90;;;;;;5005612;28;20167;-64
2021/03/17 03:58:47;;;;;;;0.30;0.30;;;21.10;29.90;;;;;;5002939;28;20315;-63
2021/03/17 04:01:25;;;;;;;0.10;0.10;;;21.20;29.90;;;;;;5008012;28;20388;-63
2021/03/17 04:04:03;;;;;;;0.30;0.30;;;21.10;29.90;;;;;;5008204;28;20058;-63
2021/03/17 04:06:32;;;;;;;0.20;0.20;;;21.10;29.90;;;;;;5007883;28;20120;-63
2021/03/17 04:09:01;;;;;;;0.10;0.10;;;21.10;29.90;;;;;;5004391;28;20048;-63
2021/03/17 04:11:28;;;;;;;0.15;0.15;;;21.10;29.90;;;;;;5027226;28;20056;-64
2021/03/17 04:14:03;;;;;;;0.25;0.25;;;21.10;29.90;;;;;;5007355;28;20084;-63
2021/03/17 04:16:33;;;;;;;0.20;0.20;;;21.10;29.90;;;;;;5006305;28;20042;-63
2021/03/17 04:19:02;;;;;;;0.20;0.20;;;21.10;29.90;;;;;;5009500;28;20060;-64
2021/03/17 04:21:31;;;;;;;0.28;0.28;;;21.10;29.90;;;;;;5009624;28;20511;-63
2021/03/17 04:24:01;;;;;;;0.10;0.10;;;21.10;29.90;;;;;;5009385;28;20049;-63
2021/03/17 04:26:31;;;;;;;0.20;0.20;;;21.10;29.90;;;;;;5007594;28;20148;-64
2021/03/17 04:28:58;;;;;;;0.30;0.30;;;21.10;29.90;;;;;;4989815;28;20042;-63
2021/03/17 04:31:26;;;;;;;0.17;0.17;;;21.10;29.90;;;;;;5007340;28;20562;-63
2021/03/17 04:33:54;;;;;;;0.40;0.30;;;21.10;30.00;;;;;;5012014;28;20057;-63
2021/03/17 04:36:22;;;;;;;0.20;0.20;;;21.10;30.00;;;;;;5013953;28;20307;-63
2021/03/17 04:38:50;;;;;;;0.40;0.25;;;21.10;30.00;;;;;;5018955;28;20384;-63
2021/03/17 04:41:18;;;;;;;0.20;0.20;;;21.10;30.00;;;;;;5030593;28;20099;-64
2021/03/17 04:43:45;;;;;;;0.20;0.20;;;21.10;30.00;;;;;;5020339;28;20081;-64
2021/03/17 04:46:12;;;;;;;1.27;0.30;;;21.10;30.00;;;;;;5010399;28;20050;-63
2021/03/17 04:48:43;;;;;;;0.20;0.20;;;21.10;30.00;;;;;;5007550;28;20495;-63
2021/03/17 04:51:11;;;;;;;0.40;0.40;;;21.10;30.00;;;;;;5008027;28;20511;-63
2021/03/17 04:53:40;;;;;;;1.13;0.30;;;21.10;30.00;;;;;;5003561;28;20042;-63
2021/03/17 04:56:08;;;;;;;0.40;0.20;;;21.10;30.00;;;;;;5008189;28;20081;-63
2021/03/17 04:58:37;;;;;;;0.30;0.30;;;21.10;30.00;;;;;;5008369;28;20293;-66
2021/03/17 05:01:06;;;;;;;0.20;0.13;;;21.10;30.00;;;;;;5003083;28;20506;-63
2021/03/17 05:03:34;;;;;;;0.20;0.20;;;21.10;30.00;;;;;;5002946;28;20045;-65
2021/03/17 05:06:03;;;;;;;0.38;0.25;;;21.10;30.00;;;;;;5001248;28;20094;-64
2021/03/17 05:08:31;;;;;;;0.32;0.32;;;21.10;30.00;;;;;;4999890;28;20042;-63
2021/03/17 05:10:59;;;;;;;0.38;0.32;;;21.10;29.90;;;;;;5000052;28;20389;-64
2021/03/17 05:13:26;;;;;;;0.38;0.38;;;21.10;29.90;;;;;;5001554;28;20046;-64
2021/03/17 05:15:53;;;;;;;0.35;0.35;;;21.10;29.80;;;;;;5006779;28;20119;-63
2021/03/17 05:18:22;;;;;;;0.40;0.40;;;21.10;29.80;;;;;;5002748;28;20046;-63
2021/03/17 05:20:51;;;;;;;0.50;0.50;;;21.10;29.80;;;;;;5001957;28;20060;-63
2021/03/17 05:23:18;;;;;;;0.35;0.35;;;21.10;29.70;;;;;;5009296;28;20119;-63
2021/03/17 05:25:47;;;;;;;0.70;0.50;;;21.10;29.70;;;;;;5004717;28;20085;-63
2021/03/17 05:28:15;;;;;;;0.77;0.57;;;21.20;29.70;;;;;;5007518;28;20306;-62
2021/03/17 05:30:46;;;;;;;0.45;0.45;;;21.20;29.60;;;;;;5015256;28;20049;-66
2021/03/17 05:33:12;;;;;;;;;;;21.30;29.60;;;;;;5008224;28;20053;-63
2021/03/17 05:35:40;;;;;;;0.60;0.60;;;21.30;29.50;;;;;;5006141;28;19959;-63
2021/03/17 05:38:07;;;;;;;0.43;0.43;;;21.30;29.40;;;;;;5007894;28;20084;-63
2021/03/17 05:40:35;;;;;;;0.40;0.35;;;21.30;29.30;;;;;;5006618;28;20263;-64
2021/03/17 05:43:04;;;;;;;0.60;0.60;;;21.40;29.30;;;;;;5009360;28;20297;-64
2021/03/17 05:45:34;;;;;;;0.60;0.60;;;21.50;29.30;;;;;;5003985;28;20141;-64
2021/03/17 05:48:09;;;;;;;0.55;0.55;;;21.60;29.20;;;;;;5005590;28;20145;-64
2021/03/17 05:50:37;;;;;;;0.60;0.60;;;21.60;29.10;;;;;;5006098;28;20053;-63
2021/03/17 05:53:09;;;;;;;0.70;0.60;;;21.70;29.10;;;;;;5009858;28;20362;-66
2021/03/17 05:55:38;;;;;;;0.63;0.63;;;21.70;29.00;;;;;;5006007;28;20241;-63
2021/03/17 05:58:05;;;;;;;0.50;0.40;;;21.80;29.40;;;;;;5001852;28;20056;-64
2021/03/17 06:00:33;;;;;;;1.30;0.60;;;21.90;29.00;;;;;;5006595;28;20111;-63
2021/03/17 06:03:03;;;;;;;0.90;0.70;;;21.90;28.90;;;;;;5006334;28;20042;-64
2021/03/17 06:05:31;;;;;;;0.90;0.75;;;22.00;28.90;;;;;;5008916;28;20681;-64
2021/03/17 06:08:12;;;;;;;0.55;0.55;;;22.00;28.80;;;;;;5005084;28;20231;-64
2021/03/17 06:10:39;;;;;;;0.65;0.65;;;22.10;28.80;;;;;;5002754;28;20054;-63
2021/03/17 06:13:11;;;;;;;0.60;0.60;;;22.20;28.70;;;;;;5002618;28;20112;-63
2021/03/17 06:15:40;;;;;;;1.20;0.80;;;22.20;28.70;;;;;;4972124;28;20046;-65
2021/03/17 06:18:40;;;;;;;0.88;0.88;;;22.30;28.80;;;;;;5002989;28;20046;-64
2021/03/17 06:21:07;;;;;;;0.70;0.70;;;22.30;28.90;;;;;;5001922;28;20525;-65
2021/03/17 06:23:34;;;;;;;3.15;0.68;;;22.40;29.00;;;;;;4999159;28;20038;-66
2021/03/17 06:26:05;;;;;;;0.82;0.80;;;22.50;29.00;;;;;;4996557;28;20116;-65
2021/03/17 06:28:59;;;;;;;0.90;0.63;;;22.50;29.00;;;;;;5005951;28;20045;-67
2021/03/17 06:31:27;;;;;;;1.67;1.13;;;22.60;29.00;;;;;;5014175;28;20088;-64
2021/03/17 06:33:54;;;;;;;0.80;0.80;;;22.70;28.90;;;;;;5008649;28;20049;-63
2021/03/17 06:36:22;;;;;;;0.70;0.70;;;22.70;28.90;;;;;;4998120;28;20065;-63
2021/03/17 06:38:50;;;;;;;1.02;1.00;;;22.80;28.80;;;;;;5001135;28;20072;-64
2021/03/17 06:41:18;;;;;;;2.15;1.73;;;22.90;28.70;;;;;;5001569;28;20483;-64
2021/03/17 06:43:48;;;;;;;1.60;1.50;;;22.90;28.50;;;;;;4997776;28;20117;-65
2021/03/17 06:46:19;;;;;;;2.25;1.48;;;22.90;28.30;;;;;;4996545;28;20073;-64
2021/03/17 06:49:04;;;;;;;1.40;1.30;;;22.90;28.30;;;;;;4993565;28;20049;-67
2021/03/17 06:51:32;;;;;;;1.55;1.38;;;23.00;28.30;;;;;;5002443;28;20058;-65
2021/03/17 06:54:01;;;;;;;1.20;1.10;;;23.00;28.20;;;;;;5003955;28;20837;-64
2021/03/17 06:56:32;;;;;;;1.25;1.17;;;23.00;28.20;;;;;;5002842;28;20103;-64
2021/03/17 06:59:07;;;;;;;1.40;1.30;;;23.10;28.20;;;;;;5003653;28;20050;-65
2021/03/17 07:01:40;;;;;;;3.60;1.40;;;23.10;28.20;;;;;;5001216;28;20050;-64
2021/03/17 07:04:11;;;;;;;1.17;1.08;;;23.10;28.20;;;;;;5001838;28;20103;-66
2021/03/17 07:06:39;;;;;;;;;;;23.20;28.20;;;;;;5005627;28;20054;-64
2021/03/17 07:09:26;;;;;;;1.73;1.33;;;23.20;28.10;;;;;;5004116;28;19943;-63
2021/03/17 07:12:06;;;;;;;1.92;1.20;;;23.20;28.10;;;;;;5004461;28;20119;-63
2021/03/17 07:14:40;;;;;;;1.55;1.30;;;23.30;28.10;;;;;;5004044;28;20068;-63
2021/03/17 07:17:24;;;;;;;1.35;1.25;;;23.30;28.20;;;;;;5003291;28;20069;-63
2021/03/17 07:19:51;;;;;;;1.55;1.45;;;23.30;28.20;;;;;;5002539;28;20062;-67
2021/03/17 07:22:19;;;;;;;2.10;1.20;;;23.40;28.30;;;;;;4999267;28;20148;-66
2021/03/17 07:24:53;;;;;;;1.38;1.27;;;23.40;28.30;;;;;;4999388;28;20045;-66
2021/03/17 07:27:22;;;;;;;1.92;1.33;;;23.50;28.40;;;;;;4999322;28;20153;-67
2021/03/17 07:30:09;;;;;;;3.05;1.40;;;23.50;28.50;;;;;;4996879;28;20081;-66
2021/03/17 07:33:03;;;;;;;1.50;1.38;;;23.50;28.70;;;;;;5003047;28;20798;-63
2021/03/17 07:39:35;;;;;;;1.33;1.20;;;23.60;28.90;;;;;;5037853;28;20469;-67
2021/03/17 07:42:07;;;;;;;2.28;1.48;;;23.50;28.80;;;;;;4998377;28;20391;-66
2021/03/17 07:44:36;;;;;;;2.08;1.10;;;23.60;28.70;;;;;;5007554;28;20132;-67
2021/03/17 07:47:06;;;;;;;0.80;0.80;;;23.60;28.70;;;;;;4998022;28;20054;-67
2021/03/17 07:49:47;;;;;;;1.30;1.20;;;23.60;28.50;;;;;;5002054;28;20543;-66
2021/03/17 07:52:26;;;;;;;1.88;1.70;;;23.60;28.30;;;;;;5002725;28;20087;-67
2021/03/17 07:55:04;;;;;;;1.35;1.25;;;23.70;28.10;;;;;;4999347;28;20073;-66
2021/03/17 07:57:32;;;;;;;1.52;1.25;;;23.70;28.10;;;;;;5003671;28;20045;-67
2021/03/17 07:59:59;;;;;;;1.55;1.20;;;23.70;28.20;;;;;;5000918;28;20738;-67
2021/03/17 08:02:26;;;;;;;1.65;1.55;;;23.80;28.20;;;;;;5000790;28;20596;-66
2021/03/17 08:04:53;;;;;;;2.05;1.13;;;23.80;28.10;;;;;;4988405;28;20101;-64
2021/03/17 08:07:20;;;;;;;1.20;1.10;;;23.80;28.10;;;;;;4920549;29;20913;-66
2021/03/17 08:09:47;;;;;;;2.22;1.13;;;23.90;28.00;;;;;;4940658;28;20623;-67
2021/03/17 08:12:16;;;;;;;1.33;1.00;;;23.90;27.90;;;;;;4942715;28;20384;-66
2021/03/17 08:14:44;;;;;;;1.63;1.38;;;23.90;27.90;;;;;;4955749;29;20058;-64
2021/03/17 08:17:12;;;;;;;1.10;1.10;;;23.90;27.90;;;;;;4950887;28;20094;-66
2021/03/17 08:20:19;;;;;;;1.23;1.13;;;23.90;27.80;;;;;;4944519;28;20210;-67
2021/03/17 08:22:49;;;;;;;2.33;1.17;;;23.90;27.80;;;;;;4936423;28;20106;-66
2021/03/17 08:25:39;;;;;;;1.20;1.10;;;23.90;27.70;;;;;;4961806;28;20498;-64
2021/03/17 08:28:24;;;;;;;3.67;1.10;;;24.00;27.50;;;;;;4998605;28;20065;-67
2021/03/17 08:30:53;;;;;;;1.10;1.10;;;24.00;27.40;;;;;;4997950;28;20112;-66
2021/03/17 08:33:38;;;;;;;1.15;1.15;;;24.00;27.30;;;;;;5000852;28;20049;-64
2021/03/17 08:36:08;;;;;;;1.40;1.17;;;24.00;27.20;;;;;;4999285;28;20077;-64
2021/03/17 08:38:48;;;;;;;1.10;1.00;;;24.00;27.30;;;;;;5000570;28;20479;-64
2021/03/17 08:41:18;;;;;;;1.00;1.00;;;24.00;27.20;;;;;;4999014;28;20046;-66
2021/03/17 08:43:47;;;;;;;1.15;1.05;;;24.10;27.20;;;;;;4999583;28;20053;-64
2021/03/17 08:46:17;;;;;;;1.17;1.10;;;24.10;27.20;;;;;;4998723;28;20049;-67
2021/03/17 08:49:04;;;;;;;1.42;1.10;;;24.20;27.10;;;;;;4995500;28;20041;-67
2021/03/17 08:52:02;;;;;;;2.75;1.25;;;24.30;27.10;;;;;;5001415;28;20050;-67
2021/03/17 08:54:45;;;;;;;1.42;1.33;;;24.30;27.00;;;;;;4987736;28;20552;-67
2021/03/17 08:57:14;;;;;;;3.42;1.30;;;24.30;26.90;;;;;;5002969;28;20160;-68
2021/03/17 08:59:47;;;;;;;1.42;1.33;;;24.30;26.80;;;;;;5003249;28;20062;-66
2021/03/17 09:02:53;;;;;;;1.40;1.02;;;24.40;26.70;;;;;;5000829;28;20050;-66
2021/03/17 09:05:22;;;;;;;0.90;0.90;;;24.40;26.70;;;;;;4996526;28;20085;-69
2021/03/17 09:08:09;;;;;;;0.90;0.90;;;24.40;26.60;;;;;;5004724;28;20077;-67
2021/03/17 09:10:46;;;;;;;1.25;0.93;;;24.50;26.70;;;;;;5003744;28;20046;-70
2021/03/17 09:13:14;;;;;;;1.25;1.15;;;24.50;26.60;;;;;;5001215;28;20147;-65
2021/03/17 09:15:50;;;;;;;1.73;1.05;;;24.60;26.50;;;;;;5000856;28;20100;-64
2021/03/17 09:18:21;;;;;;;1.20;1.15;;;24.60;26.40;;;;;;5003609;28;20537;-67
2021/03/17 09:20:58;;;;;;;1.30;1.17;;;24.60;26.40;;;;;;5000854;28;20137;-64
2021/03/17 09:23:38;;;;;;;1.02;1.02;;;24.60;26.30;;;;;;5004965;28;20439;-65
2021/03/17 09:26:06;;;;;;;1.05;1.00;;;24.50;26.20;;;;;;5000399;28;20073;-66
2021/03/17 09:28:35;;;;;;;1.85;1.13;;;24.60;26.30;;;;;;5013778;28;20054;-67
2021/03/17 09:31:26;;;;;;;1.52;1.10;;;24.60;26.20;;;;;;5018084;28;20128;-65
2021/03/17 09:33:53;;;;;;;1.35;1.25;;;24.60;26.30;;;;;;4996939;28;20061;-65
2021/03/17 09:36:25;;;;;;;1.35;1.15;;;24.60;26.10;;;;;;5000440;28;20049;-67
2021/03/17 09:38:54;;;;;;;0.88;0.85;;;24.70;26.10;;;;;;5003724;28;20057;-65
2021/03/17 09:41:24;;;;;;;2.30;1.40;;;24.70;26.10;;;;;;5001224;28;20046;-64
2021/03/17 09:44:02;;;;;;;1.77;0.90;;;24.70;26.00;;;;;;5004931;28;20060;-67
2021/03/17 09:46:41;;;;;;;2.22;1.30;;;24.70;26.30;;;;;;5000254;28;20072;-67
2021/03/17 09:49:18;;;;;;;1.58;1.17;;;24.70;26.20;;;;;;5000361;28;21539;-67
2021/03/17 09:51:49;;;;;;;1.40;1.17;;;24.80;26.30;;;;;;5000925;28;20065;-67
2021/03/17 09:54:17;;;;;;;;;;;24.80;26.30;;;;;;5002114;28;20073;-67
2021/03/17 09:56:49;;;;;;;1.05;1.02;;;24.80;26.30;;;;;;5002131;28;20377;-68
2021/03/17 09:59:29;;;;;;;1.88;1.02;;;24.80;26.20;;;;;;5001313;28;20217;-67
2021/03/17 10:02:05;;;;;;;2.55;0.73;;;24.80;26.20;;;;;;4982584;28;20050;-69
2021/03/17 10:04:48;;;;;;;1.35;1.10;;;24.90;26.40;;;;;;5000655;28;20137;-65
2021/03/17 10:07:22;;;;;;;0.90;0.90;;;24.90;26.40;;;;;;5002648;28;20100;-68
2021/03/17 10:09:52;;;;;;;1.10;0.80;;;25.00;26.30;;;;;;5000980;28;20046;-68
2021/03/17 10:12:25;;;;;;;2.90;0.80;;;25.00;26.20;;;;;;4998815;28;20054;-70
2021/03/17 10:15:07;;;;;;;0.95;0.90;;;25.00;26.10;;;;;;5003848;28;20259;-69
2021/03/17 10:17:35;;;;;;;0.73;0.70;;;25.10;26.00;;;;;;5002217;28;20050;-69
2021/03/17 10:20:12;;;;;;;0.80;0.80;;;25.10;26.10;;;;;;5000631;28;20045;-68
2021/03/17 10:22:39;;;;;;;1.35;0.88;;;25.20;26.10;;;;;;4997767;28;20301;-66
2021/03/17 10:25:15;;;;;;;0.82;0.80;;;25.20;26.00;;;;;;5001672;28;20096;-66
2021/03/17 10:27:48;;;;;;;0.90;0.90;;;25.20;25.90;;;;;;4999339;28;20054;-67
2021/03/17 10:30:27;;;;;;;0.80;0.80;;;25.30;25.90;;;;;;4991082;28;20461;-66
2021/03/17 10:32:56;;;;;;;1.65;0.77;;;25.30;25.80;;;;;;5004194;28;20054;-65
2021/03/17 10:35:52;;;;;;;2.60;0.85;;;25.30;25.90;;;;;;5014021;28;20145;-67
2021/03/17 10:38:19;;;;;;;1.45;0.95;;;25.40;25.90;;;;;;4998345;28;20046;-69
2021/03/17 10:40:45;;;;;;;1.38;1.00;;;25.40;25.70;;;;;;5003071;28;20108;-67
2021/03/17 10:43:14;;;;;;;0.70;0.70;;;25.40;25.60;;;;;;5005284;28;20046;-66
2021/03/17 10:45:49;;;;;;;1.48;0.80;;;25.40;25.60;;;;;;5008135;28;20045;-67
2021/03/17 10:48:22;;;;;;;1.42;1.00;;;25.50;25.60;;;;;;4996723;28;20692;-66
2021/03/17 10:50:50;;;;;;;0.82;0.82;;;25.50;25.50;;;;;;5001068;28;20115;-64
2021/03/17 10:53:20;;;;;;;1.92;0.80;;;25.50;25.50;;;;;;5003830;28;20048;-66
2021/03/17 10:55:48;;;;;;;1.03;1.00;;;25.60;25.60;;;;;;5001797;28;20054;-63
2021/03/17 10:58:20;;;;;;;0.85;0.85;;;25.60;25.50;;;;;;5001266;28;20065;-64
2021/03/17 11:00:50;;;;;;;0.95;0.95;;;25.60;25.70;;;;;;5001388;28;20046;-69
2021/03/17 11:03:38;;;;;;;0.70;0.70;;;25.70;25.70;;;;;;5002767;28;20057;-66
2021/03/17 11:06:21;;;;;;;0.93;0.90;;;25.70;25.70;;;;;;5009443;28;20050;-67
2021/03/17 11:09:06;;;;;;;1.33;1.08;;;25.70;25.60;;;;;;5003334;28;20050;-66
2021/03/17 11:11:47;;;;;;;1.27;1.17;;;25.70;26.00;;;;;;5001721;28;20045;-67
2021/03/17 11:14:34;;;;;;;1.13;1.13;;;25.80;25.50;;;;;;5002503;28;21245;-64
2021/03/17 11:17:07;;;;;;;1.50;1.40;;;25.80;25.50;;;;;;5001078;28;20057;-66
2021/03/17 11:19:35;;;;;;;0.90;0.90;;;25.80;25.40;;;;;;5001573;28;20050;-67
2021/03/17 11:22:01;;;;;;;3.63;1.10;;;25.80;25.40;;;;;;5000932;28;20077;-67
2021/03/17 11:24:28;;;;;;;1.40;1.30;;;25.80;25.40;;;;;;5005001;28;20455;-65
2021/03/17 11:26:55;;;;;;;3.17;1.15;;;25.80;25.40;;;;;;5001912;28;20053;-67
2021/03/17 11:29:24;;;;;;;1.25;1.15;;;25.80;25.40;;;;;;5002273;28;20093;-66
2021/03/17 11:31:53;;;;;;;2.20;1.38;;;25.80;25.40;;;;;;4999485;28;20518;-67
2021/03/17 11:34:21;;;;;;;1.60;1.15;;;25.80;25.40;;;;;;5001268;28;20423;-68
2021/03/17 11:36:50;;;;;;;3.15;2.90;;;25.90;25.40;;;;;;5001875;28;20056;-64
2021/03/17 11:39:18;;;;;;;2.72;1.95;;;25.70;23.10;;;;;;4997928;28;20132;-64
2021/03/17 11:41:47;;;;;;;1.70;1.60;;;25.50;23.40;;;;;;5000913;28;20041;-66
2021/03/17 11:44:17;;;;;;;3.55;1.70;;;25.30;23.90;;;;;;5006454;28;20045;-65
2021/03/17 11:46:44;;;;;;;4.32;2.33;;;25.30;24.20;;;;;;5000775;28;20054;-67
2021/03/17 11:49:14;;;;;;;1.50;1.40;;;25.30;24.40;;;;;;5003306;28;20092;-67
2021/03/17 11:51:42;;;;;;;1.73;1.63;;;25.30;24.50;;;;;;4995371;28;20041;-64
2021/03/17 11:54:09;;;;;;;2.40;1.65;;;25.40;24.60;;;;;;4997347;28;20060;-67
2021/03/17 11:56:36;;;;;;;1.85;1.25;;;25.40;24.80;;;;;;4993514;28;20050;-64
2021/03/17 11:59:03;;;;;;;1.30;1.17;;;25.40;24.80;;;;;;5000893;28;20053;-65
2021/03/17 12:01:30;;;;;;;1.58;1.27;;;25.50;24.90;;;;;;5003318;28;20046;-64
2021/03/17 12:03:57;;;;;;;1.40;1.30;;;25.50;24.90;;;;;;5006391;28;20151;-67
2021/03/17 12:06:23;;;;;;;1.90;1.10;;;25.50;24.90;;;;;;4996046;28;20053;-64
2021/03/17 12:08:50;;;;;;;1.45;1.35;;;25.60;24.90;;;;;;5002660;28;20100;-68
2021/03/17 12:11:20;;;;;;;2.97;1.02;;;25.60;24.90;;;;;;4999180;28;20053;-67
2021/03/17 12:13:51;;;;;;;1.00;1.00;;;25.70;24.90;;;;;;5000583;28;20401;-70
2021/03/17 12:16:19;;;;;;;3.45;1.20;;;25.70;24.90;;;;;;5002604;28;20101;-66
2021/03/17 12:18:46;;;;;;;1.30;1.20;;;25.70;24.80;;;;;;4995754;28;20559;-65
2021/03/17 12:21:14;;;;;;;2.22;0.88;;;25.70;24.80;;;;;;5002059;28;20061;-66
2021/03/17 12:23:41;;;;;;;0.93;0.93;;;25.70;24.80;;;;;;4997739;28;20037;-64
2021/03/17 12:26:09;;;;;;;1.23;1.15;;;25.70;24.80;;;;;;4997261;28;20136;-67
2021/03/17 12:28:36;;;;;;;1.10;1.10;;;25.70;24.80;;;;;;4999977;28;20599;-67
2021/03/17 12:31:03;;;;;;;1.30;1.20;;;25.70;24.80;;;;;;4997528;28;20054;-67
2021/03/17 12:33:33;;;;;;;1.08;1.08;;;25.70;24.70;;;;;;5000330;28;20050;-66
2021/03/17 12:36:02;;;;;;;1.52;1.42;;;25.70;24.70;;;;;;4999418;28;20483;-64
2021/03/17 12:38:31;;;;;;;2.00;1.90;;;25.70;24.70;;;;;;5001929;28;20046;-66
2021/03/17 12:40:57;;;;;;;1.30;1.23;;;25.70;24.10;;;;;;4994571;28;20209;-66
2021/03/17 12:43:24;;;;;;;1.35;1.33;;;25.60;24.10;;;;;;5001716;28;20811;-66
2021/03/17 12:45:51;;;;;;;1.40;1.20;;;25.60;24.20;;;;;;4995286;28;20052;-67
2021/03/17 12:48:18;;;;;;;1.00;1.00;;;25.60;24.40;;;;;;5001448;28;20084;-67
2021/03/17 12:50:46;;;;;;;1.75;1.08;;;25.70;24.60;;;;;;5000636;28;20128;-67
2021/03/17 12:53:20;;;;;;;1.15;1.08;;;25.70;24.60;;;;;;5003858;28;20132;-65
2021/03/17 12:55:46;;;;;;;1.45;1.35;;;25.70;24.40;;;;;;5000089;28;20081;-65
2021/03/17 12:58:13;;;;;;;1.33;1.10;;;25.70;24.50;;;;;;5002438;28;20092;-68
2021/03/17 13:00:39;;;;;;;1.30;1.20;;;25.70;24.50;;;;;;5001598;28;20061;-66
2021/03/17 13:03:06;;;;;;;1.60;1.50;;;25.70;24.40;;;;;;4994872;28;20050;-68
2021/03/17 13:05:33;;;;;;;0.77;0.77;;;25.80;24.50;;;;;;5001413;28;20046;-68
2021/03/17 13:08:00;;;;;;;1.20;1.20;;;25.80;24.60;;;;;;5001601;28;20049;-68
2021/03/17 13:10:28;;;;;;;1.35;1.25;;;25.80;24.50;;;;;;5002383;28;20045;-63
2021/03/17 13:12:55;;;;;;;1.52;1.38;;;25.70;24.40;;;;;;5002258;28;20050;-66
2021/03/17 13:15:22;;;;;;;1.52;1.42;;;25.70;24.50;;;;;;5001463;28;20125;-63